Time;durP1;ratioP1;P1;durP2;ratioP2;P2;SDS_P1;SDS_P2;PMS_P1;PMS_P2;Temp;Humidity;BMP_temperature;BMP_pressure;BME280_temperature;BME280_humidity;BME280_pressure;Samples;Min_cycle;Max_cycle;Signal;HPM_P1;HPM_P2
2022/03/05 00:00:43;;;;;;;3.58;2.13;;;;;;;18.80;36.92;102368.84;4733635;28;21128;-68
2022/03/05 00:03:10;;;;;;;3.65;2.28;;;;;;;18.73;37.14;102359.81;4722675;28;20404;-67
2022/03/05 00:05:35;;;;;;;3.20;2.30;;;;;;;18.74;37.11;102359.66;4731091;28;20777;-67
2022/03/05 00:08:03;;;;;;;2.70;2.22;;;;;;;18.61;37.24;102341.41;4723005;28;20910;-67
2022/03/05 00:10:30;;;;;;;4.72;2.85;;;;;;;18.74;37.15;102361.47;4732138;28;21197;-67
2022/03/05 00:12:55;;;;;;;3.28;2.22;;;;;;;18.71;37.04;102363.41;4723462;28;20596;-67
2022/03/05 00:15:23;;;;;;;3.20;2.20;;;;;;;18.71;37.39;102371.31;4733105;28;20867;-67
2022/03/05 00:17:50;;;;;;;4.65;2.58;;;;;;;18.56;36.86;102343.63;4723296;28;20989;-67
2022/03/05 00:20:17;;;;;;;3.08;2.20;;;;;;;18.69;37.21;102361.88;4729130;28;21130;-67
2022/03/05 00:22:42;;;;;;;2.75;2.40;;;;;;;18.67;36.97;102364.66;4722905;28;20860;-67
2022/03/05 00:25:08;;;;;;;2.78;2.10;;;;;;;18.63;37.07;102362.41;4731495;28;20645;-67
2022/03/05 00:27:34;;;;;;;3.90;2.30;;;;;;;18.65;37.17;102365.75;4722334;28;20795;-67
2022/03/05 00:29:59;;;;;;;3.50;2.33;;;;;;;18.50;37.37;102338.88;4731150;28;21145;-67
2022/03/05 00:32:25;;;;;;;3.03;2.38;;;;;;;18.59;37.28;102353.91;4722500;28;20247;-67
2022/03/05 00:34:50;;;;;;;2.25;2.00;;;;;;;18.59;37.10;102359.16;4727146;28;20951;-67
2022/03/05 00:37:16;;;;;;;3.53;2.33;;;;;;;18.57;37.37;102355.00;4719385;28;21446;-67
2022/03/05 00:39:42;;;;;;;2.20;2.00;;;;;;;18.46;37.29;102339.25;4725283;28;20733;-66
2022/03/05 00:42:08;;;;;;;2.72;2.10;;;;;;;18.56;37.15;102362.09;4723971;28;20685;-66
2022/03/05 00:44:34;;;;;;;3.03;2.45;;;;;;;18.55;37.09;102356.94;4719743;28;20791;-66
2022/03/05 00:47:00;;;;;;;3.47;2.35;;;;;;;18.53;37.34;102358.88;4726890;28;21120;-68
2022/03/05 00:49:26;;;;;;;2.65;2.15;;;;;;;18.52;37.28;102357.22;4718847;28;20847;-67
2022/03/05 00:51:52;;;;;;;3.10;2.30;;;;;;;18.51;37.21;102356.38;4730767;28;20048;-68
2022/03/05 00:54:21;;;;;;;2.45;2.13;;;;;;;18.50;37.38;102354.72;4721577;28;20662;-68
2022/03/05 00:56:47;;;;;;;2.83;2.20;;;;;;;18.46;37.27;102355.94;4732386;28;21416;-68
2022/03/05 00:59:12;;;;;;;3.53;2.40;;;;;;;18.45;37.25;102354.25;4718319;28;21066;-68
2022/03/05 01:01:39;;;;;;;2.28;2.03;;;;;;;18.43;37.35;102356.19;4734512;28;20782;-68
2022/03/05 01:04:05;;;;;;;2.88;2.15;;;;;;;18.41;37.38;102351.06;4721125;28;20982;-68
2022/03/05 01:06:31;;;;;;;3.20;2.38;;;;;;;18.40;37.50;102359.09;4735592;28;21405;-68
2022/03/05 01:09:00;;;;;;;3.17;2.33;;;;;;;18.38;37.25;102359.25;4719857;28;21108;-67
2022/03/05 01:11:26;;;;;;;3.28;2.40;;;;;;;18.38;37.37;102361.03;4731815;28;20437;-68
2022/03/05 01:13:52;;;;;;;2.45;2.25;;;;;;;18.37;37.35;102362.84;4722367;28;20948;-68
2022/03/05 01:16:17;;;;;;;3.92;2.30;;;;;;;18.36;37.33;102363.00;4746464;28;21200;-68
2022/03/05 01:18:43;;;;;;;3.63;2.40;;;;;;;18.33;37.58;102356.19;4724543;28;20446;-67
2022/03/05 01:21:10;;;;;;;3.95;2.58;;;;;;;18.21;37.39;102338.78;4729443;28;21252;-67
2022/03/05 01:23:38;;;;;;;3.13;2.53;;;;;;;18.31;37.44;102354.63;4727621;28;20129;-68
2022/03/05 01:26:04;;;;;;;3.00;2.35;;;;;;;18.29;37.53;102357.38;4714388;28;20536;-68
2022/03/05 01:28:30;;;;;;;4.93;2.63;;;;;;;18.29;37.25;102341.56;4727024;28;20444;-67
2022/03/05 01:30:56;;;;;;;3.33;2.63;;;;;;;18.27;37.38;102340.03;4728016;28;21293;-69
2022/03/05 01:33:22;;;;;;;3.38;2.50;;;;;;;18.26;37.35;102347.09;4728056;28;21258;-69
2022/03/05 01:35:48;;;;;;;3.53;2.60;;;;;;;18.26;37.31;102341.84;4715872;28;20515;-70
2022/03/05 01:38:16;;;;;;;3.17;2.40;;;;;;;18.24;37.42;102340.31;4729797;28;21251;-69
2022/03/05 01:40:43;;;;;;;2.78;2.20;;;;;;;18.21;37.43;102336.13;4721203;28;20762;-70
2022/03/05 01:43:10;;;;;;;3.03;2.22;;;;;;;18.19;37.44;102335.44;4732274;28;21082;-70
2022/03/05 01:45:36;;;;;;;3.17;2.67;;;;;;;18.20;37.68;102344.19;4722899;28;21085;-71
2022/03/05 01:48:02;;;;;;;4.22;2.50;;;;;;;18.17;37.46;102336.53;4730554;28;20381;-68
2022/03/05 01:50:29;;;;;;;3.38;2.45;;;;;;;18.05;37.33;102326.06;4724688;28;20394;-68
2022/03/05 01:52:55;;;;;;;3.58;2.35;;;;;;;18.17;37.39;102349.72;4732463;28;20583;-68
2022/03/05 01:55:22;;;;;;;2.38;2.15;;;;;;;18.14;37.71;102344.72;4723290;28;21294;-70
2022/03/05 01:57:47;;;;;;;3.45;2.67;;;;;;;18.16;37.40;102345.41;4732412;28;21333;-68
2022/03/05 02:00:14;;;;;;;3.03;2.40;;;;;;;18.04;37.46;102318.28;4721291;28;20751;-68
2022/03/05 02:02:41;;;;;;;3.50;2.20;;;;;;;18.03;37.49;102316.63;4734306;28;20672;-68
2022/03/05 02:05:09;;;;;;;2.85;2.22;;;;;;;18.00;37.53;102315.09;4718186;28;20168;-68
2022/03/05 02:07:35;;;;;;;3.95;2.42;;;;;;;18.11;37.48;102332.59;4726943;28;21140;-67
2022/03/05 02:10:01;;;;;;;3.28;2.25;;;;;;;18.07;37.41;102324.13;4721928;28;21180;-68
2022/03/05 02:12:31;;;;;;;2.85;2.30;;;;;;;18.06;37.80;102326.91;4726495;28;20499;-68
2022/03/05 02:14:58;;;;;;;2.88;2.20;;;;;;;18.00;37.48;102314.25;4722422;28;24135;-67
2022/03/05 02:17:24;;;;;;;3.63;2.30;;;;;;;18.09;37.45;102330.09;4729492;28;20873;-70
2022/03/05 02:19:50;;;;;;;2.80;2.22;;;;;;;18.08;37.41;102325.81;4722384;28;20561;-68
2022/03/05 02:22:16;;;;;;;2.55;2.20;;;;;;;18.05;37.53;102326.06;4719154;28;20715;-69
2022/03/05 02:24:42;;;;;;;3.60;2.63;;;;;;;18.07;37.39;102328.56;4724584;28;20782;-68
2022/03/05 02:27:08;;;;;;;2.67;2.25;;;;;;;18.06;37.63;102329.53;4727976;28;20804;-70
2022/03/05 02:29:35;;;;;;;2.40;2.17;;;;;;;17.92;37.40;102300.88;4729881;28;21136;-70
2022/03/05 02:32:03;;;;;;;2.97;2.45;;;;;;;18.03;37.39;102325.38;4721426;28;20419;-68
2022/03/05 02:34:29;;;;;;;3.63;2.70;;;;;;;18.04;37.63;102328.84;4730897;28;21207;-68
2022/03/05 02:36:54;;;;;;;3.45;2.70;;;;;;;18.03;37.42;102327.16;4702722;28;20619;-70
2022/03/05 02:39:24;;;;;;;3.85;2.60;;;;;;;17.99;37.55;102310.78;4732012;28;20829;-69
2022/03/05 02:41:50;;;;;;;5.53;2.80;;;;;;;17.99;37.57;102317.88;4722833;28;20798;-69
2022/03/05 02:44:16;;;;;;;2.83;2.17;;;;;;;17.98;37.68;102318.84;4732226;28;21121;-70
2022/03/05 02:46:42;;;;;;;3.03;2.45;;;;;;;17.86;37.55;102296.16;4720211;28;20999;-70
2022/03/05 02:49:07;;;;;;;2.47;2.20;;;;;;;17.96;37.68;102318.97;4730915;28;20797;-70
2022/03/05 02:51:33;;;;;;;3.28;2.33;;;;;;;17.95;37.60;102316.44;4723495;28;21638;-68
2022/03/05 02:53:59;;;;;;;2.58;2.38;;;;;;;17.82;37.66;102295.59;4732757;28;20037;-68
2022/03/05 02:56:24;;;;;;;2.88;2.47;;;;;;;17.92;37.75;102314.91;4726628;28;20527;-68
2022/03/05 02:58:50;;;;;;;3.92;2.53;;;;;;;17.80;37.45;102297.53;4735560;28;20562;-70
2022/03/05 03:01:17;;;;;;;2.80;2.47;;;;;;;17.89;37.66;102309.06;4717642;28;20395;-69
2022/03/05 03:03:43;;;;;;;3.95;2.30;;;;;;;17.91;37.68;102307.97;4727555;28;20724;-70
2022/03/05 03:06:08;;;;;;;2.83;2.25;;;;;;;17.91;37.42;102312.41;4724339;28;20973;-69
2022/03/05 03:08:34;;;;;;;3.00;2.67;;;;;;;17.88;37.35;102313.50;4710868;28;20412;-69
2022/03/05 03:11:00;;;;;;;3.67;2.28;;;;;;;17.84;37.73;102309.47;4727997;28;20933;-68
2022/03/05 03:13:26;;;;;;;3.33;2.40;;;;;;;17.88;37.50;102310.88;4704237;28;20882;-69
2022/03/05 03:15:52;;;;;;;2.60;2.38;;;;;;;17.79;37.50;102301.13;4729760;28;20789;-68
2022/03/05 03:18:21;;;;;;;3.42;2.58;;;;;;;17.90;37.13;102311.56;4720955;28;20847;-68
2022/03/05 03:20:46;;;;;;;2.70;2.40;;;;;;;17.87;37.42;102322.38;4728821;28;21212;-68
2022/03/05 03:23:12;;;;;;;2.85;2.53;;;;;;;17.88;37.54;102323.19;4722243;28;21837;-68
2022/03/05 03:25:41;;;;;;;3.50;2.15;;;;;;;17.87;37.46;102319.72;4728640;28;20451;-68
2022/03/05 03:28:07;;;;;;;3.10;2.45;;;;;;;17.76;37.47;102304.81;4718288;28;20813;-68
2022/03/05 03:30:33;;;;;;;2.50;2.20;;;;;;;17.77;37.32;102310.94;4725527;28;20818;-68
2022/03/05 03:32:58;;;;;;;3.17;2.30;;;;;;;17.73;37.69;102309.53;4720319;28;20592;-68
2022/03/05 03:35:24;;;;;;;2.90;2.40;;;;;;;17.72;37.47;102305.22;4730832;28;20865;-71
2022/03/05 03:37:50;;;;;;;2.60;2.28;;;;;;;17.77;37.48;102319.69;4720074;28;20786;-70
2022/03/05 03:40:17;;;;;;;2.83;2.40;;;;;;;17.78;37.77;102321.38;4729832;28;20596;-71
2022/03/05 03:42:46;;;;;;;2.85;2.25;;;;;;;17.78;37.78;102317.91;4720969;28;20668;-70
2022/03/05 03:45:13;;;;;;;3.05;2.30;;;;;;;17.77;37.55;102322.34;4730076;28;21246;-70
2022/03/05 03:47:40;;;;;;;4.07;2.70;;;;;;;17.74;37.54;102335.75;4718361;28;20498;-70
2022/03/05 03:50:07;;;;;;;3.53;2.60;;;;;;;17.75;37.68;102323.41;4731133;28;20410;-70
2022/03/05 03:52:33;;;;;;;3.53;2.25;;;;;;;17.70;37.60;102313.25;4719566;28;20944;-70
2022/03/05 03:54:59;;;;;;;3.40;2.55;;;;;;;17.73;37.55;102317.44;4729098;28;20786;-69
2022/03/05 03:57:24;;;;;;;3.38;2.67;;;;;;;17.66;37.63;102309.19;4719918;28;21441;-69
2022/03/05 03:59:51;;;;;;;3.10;2.40;;;;;;;17.75;37.61;102323.41;4725418;28;21138;-68
2022/03/05 04:02:22;;;;;;;2.67;2.33;;;;;;;17.59;37.63;102312.44;4719030;28;20714;-68
2022/03/05 04:04:47;;;;;;;;;;;;;;;17.64;37.61;102319.03;4726922;28;20940;-68
2022/03/05 04:10:01;;;;;;;2.92;1.98;;;;;;;17.67;37.68;102339.00;4716379;28;21576;-70
2022/03/05 04:12:26;;;;;;;2.72;2.30;;;;;;;17.57;37.67;102314.38;4719146;28;21274;-69
2022/03/05 04:14:54;;;;;;;2.83;2.20;;;;;;;17.69;37.60;102339.75;4729947;28;20968;-70
2022/03/05 04:17:22;;;;;;;3.42;2.40;;;;;;;17.58;37.44;102324.78;4722460;28;21133;-69
2022/03/05 04:19:48;;;;;;;3.28;2.40;;;;;;;17.69;37.56;102337.94;4724236;28;21041;-69
2022/03/05 04:22:14;;;;;;;2.70;2.30;;;;;;;17.66;37.41;102332.91;4725594;28;20951;-68
2022/03/05 04:24:40;;;;;;;3.80;2.70;;;;;;;17.70;37.56;102346.69;4707811;28;20966;-68
2022/03/05 04:27:14;;;;;;;2.40;2.15;;;;;;;17.57;37.65;102331.03;4727094;28;21032;-68
2022/03/05 04:29:40;;;;;;;2.65;2.38;;;;;;;17.53;37.57;102317.28;4723714;28;21079;-68
2022/03/05 04:32:07;;;;;;;2.45;2.15;;;;;;;17.69;37.68;102337.09;4723023;28;20656;-68
2022/03/05 04:34:34;;;;;;;2.50;2.17;;;;;;;17.68;37.53;102333.63;4722917;28;20948;-69
2022/03/05 04:37:00;;;;;;;3.63;2.40;;;;;;;17.58;37.46;102316.06;4734454;28;20561;-68
2022/03/05 04:39:25;;;;;;;3.72;2.42;;;;;;;17.69;37.54;102337.09;4723516;28;20684;-69
2022/03/05 04:41:51;;;;;;;2.95;2.50;;;;;;;17.68;37.49;102336.25;4734311;28;20640;-68
2022/03/05 04:44:20;;;;;;;2.60;2.33;;;;;;;17.67;37.41;102339.84;4723427;28;20710;-68
2022/03/05 04:46:46;;;;;;;3.67;2.47;;;;;;;17.52;37.62;102315.59;4732278;28;20470;-69
2022/03/05 04:49:12;;;;;;;2.78;2.30;;;;;;;17.52;37.45;102312.13;4721216;28;21669;-70
2022/03/05 04:51:39;;;;;;;3.30;2.30;;;;;;;17.60;37.51;102324.69;4729439;28;20200;-70
2022/03/05 04:54:05;;;;;;;3.00;2.28;;;;;;;17.55;37.35;102318.94;4717060;28;21424;-67
2022/03/05 04:56:30;;;;;;;2.83;2.42;;;;;;;17.56;37.75;102318.81;4729271;28;20636;-68
2022/03/05 04:58:59;;;;;;;3.55;2.53;;;;;;;17.63;37.63;102327.91;4720531;28;20526;-68
2022/03/05 05:01:25;;;;;;;2.70;2.22;;;;;;;17.62;37.76;102335.94;4730607;28;20343;-68
2022/03/05 05:03:50;;;;;;;2.72;2.47;;;;;;;17.61;37.58;102342.16;4718683;28;20779;-69
2022/03/05 05:06:16;;;;;;;3.30;2.50;;;;;;;17.59;37.62;102341.44;4732560;28;20698;-68
2022/03/05 05:08:42;;;;;;;4.70;2.53;;;;;;;17.56;37.66;102345.16;4724650;28;21745;-69
2022/03/05 05:11:07;;;;;;;3.33;2.22;;;;;;;17.57;37.67;102338.09;4733204;28;21342;-68
2022/03/05 05:13:33;;;;;;;2.83;2.30;;;;;;;17.56;37.61;102344.31;4728308;28;21244;-68
2022/03/05 05:16:00;;;;;;;2.65;2.08;;;;;;;17.44;37.47;102323.31;4725401;28;20649;-69
2022/03/05 05:18:26;;;;;;;3.15;2.40;;;;;;;17.50;37.63;102338.59;4728881;28;21479;-68
2022/03/05 05:20:51;;;;;;;2.85;2.45;;;;;;;17.42;37.57;102319.16;4712401;28;20771;-68
2022/03/05 05:23:17;;;;;;;2.95;2.30;;;;;;;17.42;37.75;102322.63;4729126;28;20730;-69
2022/03/05 05:25:43;;;;;;;2.67;2.20;;;;;;;17.53;37.60;102340.16;4719403;28;20774;-68
2022/03/05 05:28:09;;;;;;;2.33;2.00;;;;;;;17.41;37.76;102323.56;4712927;28;20739;-68
2022/03/05 05:30:34;;;;;;;2.13;1.92;;;;;;;17.49;37.76;102336.94;4724035;28;21641;-70
2022/03/05 05:33:00;;;;;;;3.10;2.35;;;;;;;17.49;37.88;102344.00;4729654;28;20598;-68
2022/03/05 05:35:26;;;;;;;3.42;2.45;;;;;;;17.49;37.62;102339.56;4723141;28;21754;-68
2022/03/05 05:37:52;;;;;;;3.65;2.65;;;;;;;17.51;37.53;102337.66;4728807;28;21436;-69
2022/03/05 05:40:18;;;;;;;3.20;2.38;;;;;;;17.41;37.78;102320.09;4720116;28;20869;-68
2022/03/05 05:42:43;;;;;;;4.43;2.40;;;;;;;17.52;37.71;102334.03;4732223;28;20131;-69
2022/03/05 05:45:09;;;;;;;3.00;2.30;;;;;;;17.50;37.70;102348.31;4723493;28;21008;-68
2022/03/05 05:47:35;;;;;;;2.42;2.10;;;;;;;17.48;37.65;102332.63;4712755;28;21219;-69
2022/03/05 05:50:03;;;;;;;3.00;2.08;;;;;;;17.48;37.47;102337.91;4721897;28;20861;-68
2022/03/05 05:52:29;;;;;;;2.25;2.05;;;;;;;17.51;37.46;102347.34;4731427;28;20451;-68
2022/03/05 05:54:54;;;;;;;2.55;2.17;;;;;;;17.51;37.66;102347.34;4724529;28;20755;-68
2022/03/05 05:57:20;;;;;;;2.65;2.10;;;;;;;17.50;37.65;102354.41;4727883;28;20755;-68
2022/03/05 05:59:46;;;;;;;2.78;2.20;;;;;;;17.40;37.65;102335.06;4719385;28;20621;-68
2022/03/05 06:02:11;;;;;;;3.25;2.40;;;;;;;17.50;37.64;102357.03;4729363;28;20578;-68
2022/03/05 06:04:37;;;;;;;4.28;2.38;;;;;;;17.51;37.48;102360.50;4718644;28;20501;-68
2022/03/05 06:07:03;;;;;;;2.30;2.10;;;;;;;17.51;37.80;102365.78;4729973;28;20974;-68
2022/03/05 06:09:29;;;;;;;2.80;2.20;;;;;;;17.51;37.72;102365.78;4722164;28;20477;-68
2022/03/05 06:11:54;;;;;;;3.20;2.30;;;;;;;17.50;37.76;102370.22;4729523;28;20896;-68
2022/03/05 06:14:21;;;;;;;2.65;2.13;;;;;;;17.50;37.86;102369.38;4721174;28;21332;-68
2022/03/05 06:16:47;;;;;;;2.78;2.10;;;;;;;17.50;37.83;102369.38;4731536;28;21982;-68
2022/03/05 06:19:13;;;;;;;2.30;2.10;;;;;;;17.40;37.74;102347.38;4723179;28;20557;-68
2022/03/05 06:21:38;;;;;;;2.60;2.22;;;;;;;17.48;37.68;102366.88;4729218;28;20559;-67
2022/03/05 06:24:04;;;;;;;3.15;2.28;;;;;;;17.52;37.86;102378.00;4724786;28;21034;-68
2022/03/05 06:26:31;;;;;;;4.07;2.42;;;;;;;17.39;37.81;102354.44;4736344;28;21105;-68
2022/03/05 06:28:58;;;;;;;2.75;2.22;;;;;;;17.47;37.97;102367.84;4718926;28;20395;-68
2022/03/05 06:31:24;;;;;;;2.78;2.20;;;;;;;17.38;37.58;102357.22;4732011;28;20876;-68
2022/03/05 06:33:50;;;;;;;2.13;1.92;;;;;;;17.49;37.61;102375.63;4717719;28;21279;-68
2022/03/05 06:36:15;;;;;;;2.60;2.00;;;;;;;17.51;37.76;102371.06;4728731;28;21065;-68
2022/03/05 06:38:41;;;;;;;2.60;2.17;;;;;;;17.51;37.70;102373.69;4719059;28;20083;-68
2022/03/05 06:41:06;;;;;;;2.33;1.90;;;;;;;17.51;37.48;102358.72;4726768;28;20370;-68
2022/03/05 06:43:32;;;;;;;2.55;2.20;;;;;;;17.68;37.42;102370.50;4727936;28;21236;-68
2022/03/05 06:46:00;;;;;;;2.20;2.00;;;;;;;17.73;37.35;102351.69;4728186;28;20991;-66
2022/03/05 06:48:26;;;;;;;2.33;1.83;;;;;;;18.02;37.18;102373.78;4730079;28;21845;-67
2022/03/05 06:50:52;;;;;;;2.20;2.00;;;;;;;18.07;36.91;102368.94;4709726;28;20597;-68
2022/03/05 06:53:18;;;;;;;3.45;2.17;;;;;;;18.19;37.04;102371.50;4729355;28;21365;-67
2022/03/05 06:55:43;;;;;;;3.65;2.20;;;;;;;18.38;36.81;102375.06;4721625;28;20880;-67
2022/03/05 06:58:09;;;;;;;2.40;2.20;;;;;;;18.49;36.57;102375.94;4726742;28;20796;-67
2022/03/05 07:00:34;;;;;;;2.08;1.88;;;;;;;18.55;36.55;102367.50;4724553;28;21199;-67
2022/03/05 07:03:00;;;;;;;1.92;1.75;;;;;;;18.64;36.63;102372.81;4728519;28;21231;-67
2022/03/05 07:05:26;;;;;;;2.70;2.10;;;;;;;18.75;36.65;102378.97;4720562;28;20594;-67
2022/03/05 07:07:52;;;;;;;2.70;2.10;;;;;;;18.70;36.59;102368.81;4729067;28;21535;-67
2022/03/05 07:10:18;;;;;;;2.70;2.00;;;;;;;18.72;36.42;102372.16;4723722;28;21366;-67
2022/03/05 07:12:43;;;;;;;2.33;2.05;;;;;;;18.67;36.54;102364.66;4726604;28;21021;-67
2022/03/05 07:15:09;;;;;;;2.85;2.13;;;;;;;18.76;36.61;102391.19;4722125;28;21257;-68
2022/03/05 07:17:35;;;;;;;2.53;1.92;;;;;;;18.73;36.63;102391.47;4726253;28;21752;-67
2022/03/05 07:20:01;;;;;;;2.63;2.10;;;;;;;18.78;36.59;102386.63;4725826;28;20041;-66
2022/03/05 07:22:26;;;;;;;3.67;2.20;;;;;;;18.69;36.45;102386.47;4732187;28;21691;-67
2022/03/05 07:24:52;;;;;;;2.13;1.92;;;;;;;18.77;36.49;102398.13;4728190;28;21947;-67
2022/03/05 07:27:18;;;;;;;2.35;2.15;;;;;;;18.82;36.64;102395.91;4697896;28;20687;-67
2022/03/05 07:29:44;;;;;;;2.90;2.10;;;;;;;18.86;36.44;102395.53;4743273;28;20712;-67
2022/03/05 07:32:10;;;;;;;2.22;2.03;;;;;;;18.95;36.41;102397.34;4722311;28;20900;-67
2022/03/05 07:34:36;;;;;;;2.03;1.77;;;;;;;19.00;36.54;102394.28;4732086;28;20853;-67
2022/03/05 07:37:02;;;;;;;2.90;2.30;;;;;;;18.90;36.21;102382.91;4721549;28;20887;-67
2022/03/05 07:39:28;;;;;;;2.92;2.38;;;;;;;19.01;36.26;102398.59;4728698;28;21040;-67
2022/03/05 07:41:54;;;;;;;2.22;2.00;;;;;;;19.01;36.44;102395.97;4722219;28;21306;-67
2022/03/05 07:44:21;;;;;;;2.72;2.10;;;;;;;18.99;36.22;102390.00;4728448;28;20576;-67
2022/03/05 07:46:46;;;;;;;2.25;1.90;;;;;;;18.92;36.50;102370.41;4723093;28;21551;-69
2022/03/05 07:49:12;;;;;;;3.88;2.22;;;;;;;18.94;36.36;102379.84;4731662;28;20775;-67
2022/03/05 07:51:38;;;;;;;2.30;2.00;;;;;;;18.98;36.40;102391.78;4721254;28;21649;-67
2022/03/05 07:54:04;;;;;;;2.92;2.05;;;;;;;19.00;36.35;102403.03;4710874;28;20779;-67
2022/03/05 07:56:30;;;;;;;3.03;2.30;;;;;;;19.05;36.29;102404.47;4704194;28;20321;-69
2022/03/05 07:58:55;;;;;;;3.03;2.28;;;;;;;19.00;36.16;102394.28;4732052;28;21032;-67
2022/03/05 08:01:21;;;;;;;2.40;2.20;;;;;;;19.01;36.26;102398.59;4718247;28;21500;-69
2022/03/05 08:03:47;;;;;;;2.83;2.20;;;;;;;18.91;36.11;102384.56;4726416;28;20305;-67
2022/03/05 08:06:12;;;;;;;2.83;2.35;;;;;;;18.93;36.39;102391.38;4717397;28;20873;-67
2022/03/05 08:08:38;;;;;;;2.80;2.33;;;;;;;19.02;36.22;102400.28;4728005;28;20966;-67
2022/03/05 08:11:03;;;;;;;3.67;2.22;;;;;;;18.93;36.02;102393.19;4731940;28;20954;-67
2022/03/05 08:13:29;;;;;;;2.70;2.25;;;;;;;19.03;36.17;102412.53;4726410;28;21621;-67
2022/03/05 08:15:55;;;;;;;4.25;2.40;;;;;;;18.93;36.10;102399.28;4732851;28;20627;-67
2022/03/05 08:18:21;;;;;;;4.43;2.30;;;;;;;19.03;36.02;102412.53;4728363;28;20597;-67
2022/03/05 08:20:47;;;;;;;2.47;2.20;;;;;;;19.09;36.07;102416.41;4733837;28;20355;-67
2022/03/05 08:23:13;;;;;;;3.85;2.05;;;;;;;19.00;36.00;102403.03;4722484;28;20889;-67
2022/03/05 08:25:39;;;;;;;3.05;2.20;;;;;;;19.10;35.94;102413.66;4732034;28;20748;-67
2022/03/05 08:28:04;;;;;;;2.72;2.30;;;;;;;19.04;35.99;102410.72;4724902;28;20513;-67
2022/03/05 08:30:30;;;;;;;4.32;2.45;;;;;;;19.11;36.02;102417.94;4734207;28;20925;-67
2022/03/05 08:32:55;;;;;;;3.38;2.40;;;;;;;19.13;35.79;102420.44;4725284;28;20709;-67
2022/03/05 08:35:21;;;;;;;2.90;2.20;;;;;;;19.11;35.99;102412.66;4735053;28;21259;-68
2022/03/05 08:37:48;;;;;;;4.30;2.13;;;;;;;19.12;35.94;102411.69;4725763;28;20574;-67
2022/03/05 08:40:15;;;;;;;2.75;2.15;;;;;;;19.18;35.81;102412.94;4734890;28;21003;-66
2022/03/05 08:42:42;;;;;;;4.18;2.28;;;;;;;19.18;35.98;102420.88;4726407;28;21009;-66
2022/03/05 08:45:08;;;;;;;4.38;2.20;;;;;;;19.18;35.59;102411.13;4732125;28;21036;-67
2022/03/05 08:47:34;;;;;;;4.13;2.70;;;;;;;19.18;35.60;102412.94;4725395;28;20798;-67
2022/03/05 08:50:00;;;;;;;2.90;2.33;;;;;;;19.11;35.86;102401.28;4732777;28;20704;-67
2022/03/05 08:52:28;;;;;;;3.17;2.50;;;;;;;19.18;35.59;102412.94;4726605;28;20905;-67
2022/03/05 08:54:55;;;;;;;3.38;2.38;;;;;;;19.18;35.68;102411.13;4732635;28;20359;-67
2022/03/05 08:57:20;;;;;;;2.70;2.33;;;;;;;19.08;35.79;102388.34;4705096;28;20091;-67
2022/03/05 08:59:46;;;;;;;2.72;2.17;;;;;;;19.11;36.03;102412.66;4733601;28;20037;-67
2022/03/05 09:02:11;;;;;;;2.67;2.20;;;;;;;19.10;36.06;102410.16;4728112;28;20502;-67
2022/03/05 09:04:37;;;;;;;3.42;2.25;;;;;;;19.18;35.86;102402.38;4732787;28;21497;-67
2022/03/05 09:07:03;;;;;;;2.60;2.40;;;;;;;19.16;35.79;102389.31;4720057;28;20930;-67
2022/03/05 09:09:28;;;;;;;2.83;2.35;;;;;;;19.34;35.83;102407.97;4729398;28;20858;-67
2022/03/05 09:11:54;;;;;;;3.30;2.40;;;;;;;19.38;35.73;102408.50;4734785;28;22127;-67
2022/03/05 09:14:19;;;;;;;3.28;2.58;;;;;;;19.39;35.77;102402.25;4726257;28;20545;-67
2022/03/05 09:16:45;;;;;;;3.80;2.72;;;;;;;19.38;35.76;102404.06;4735361;28;20814;-67
2022/03/05 09:19:11;;;;;;;3.55;2.60;;;;;;;19.42;35.72;102407.28;4726458;28;21677;-67
2022/03/05 09:21:37;;;;;;;3.30;2.45;;;;;;;19.40;35.91;102419.81;4734711;28;20871;-67
2022/03/05 09:24:04;;;;;;;2.85;2.50;;;;;;;19.39;35.86;102412.81;4708622;28;20533;-67
2022/03/05 09:26:31;;;;;;;3.03;2.47;;;;;;;19.37;35.88;102415.59;4730097;28;21011;-67
2022/03/05 09:28:56;;;;;;;3.65;2.70;;;;;;;19.36;35.92;102410.47;4713444;28;21096;-67
2022/03/05 09:31:22;;;;;;;3.10;2.47;;;;;;;19.35;35.79;102408.78;4708740;28;21030;-66
2022/03/05 09:33:47;;;;;;;3.67;2.65;;;;;;;19.36;35.97;102415.75;4723266;28;21905;-66
2022/03/05 09:36:13;;;;;;;4.63;3.03;;;;;;;19.39;36.37;102403.13;4732882;28;20694;-69
2022/03/05 09:38:39;;;;;;;5.13;2.80;;;;;;;19.45;36.21;102412.28;4722690;28;20684;-67
2022/03/05 09:41:07;;;;;;;3.78;2.95;;;;;;;19.46;36.14;102411.31;4712598;28;20507;-68
2022/03/05 09:43:34;;;;;;;4.22;3.15;;;;;;;19.48;36.02;102407.56;4725188;28;21502;-68
2022/03/05 09:46:01;;;;;;;4.93;3.53;;;;;;;19.48;35.83;102406.72;4721936;28;21265;-68
2022/03/05 09:48:28;;;;;;;5.22;3.30;;;;;;;19.36;35.87;102386.69;4725253;28;20762;-68
2022/03/05 09:50:54;;;;;;;5.70;3.70;;;;;;;19.45;35.81;102407.00;4733245;28;20923;-68
2022/03/05 09:53:23;;;;;;;5.30;3.60;;;;;;;19.45;35.80;102404.38;4721956;28;20987;-67
2022/03/05 09:55:49;;;;;;;7.95;3.88;;;;;;;19.41;35.74;102398.53;4733870;28;21160;-70
2022/03/05 09:58:16;;;;;;;7.03;4.35;;;;;;;19.39;35.49;102386.41;4705925;28;20522;-67
2022/03/05 10:00:43;;;;;;;5.90;3.83;;;;;;;19.26;35.79;102370.84;4734295;28;21408;-67
2022/03/05 10:03:12;;;;;;;7.40;3.78;;;;;;;19.31;35.74;102380.03;4721896;28;20980;-67
2022/03/05 10:05:37;;;;;;;5.30;3.60;;;;;;;19.33;35.83;102388.63;4730475;28;20935;-68
2022/03/05 10:08:10;;;;;;;7.47;3.80;;;;;;;19.22;35.80;102367.66;4723885;28;20273;-68
2022/03/05 10:10:49;;;;;;;6.43;3.78;;;;;;;19.31;35.35;102385.31;4726877;28;20892;-67
2022/03/05 10:13:17;;;;;;;5.65;3.80;;;;;;;19.24;35.89;102384.19;4735066;28;21348;-68
2022/03/05 10:15:44;;;;;;;5.75;4.05;;;;;;;19.23;35.86;102385.16;4722445;28;20687;-67
2022/03/05 10:18:09;;;;;;;8.25;4.00;;;;;;;19.22;35.71;102380.88;4717373;28;20694;-67
2022/03/05 10:20:43;;;;;;;7.70;4.43;;;;;;;19.27;35.62;102391.84;4719749;28;20963;-67
2022/03/05 10:23:11;;;;;;;4.72;3.70;;;;;;;19.27;35.56;102389.19;4731535;28;21836;-67
2022/03/05 10:25:42;;;;;;;6.68;4.28;;;;;;;19.20;35.82;102377.50;4723413;28;20779;-67
2022/03/05 10:28:13;;;;;;;5.18;3.72;;;;;;;19.18;35.89;102382.09;4728402;28;20570;-67
2022/03/05 10:30:43;;;;;;;5.53;3.70;;;;;;;19.12;35.75;102361.53;4723179;28;21284;-68
2022/03/05 10:33:26;;;;;;;5.63;3.40;;;;;;;19.22;35.86;102378.22;4729908;28;21507;-67
2022/03/05 10:35:52;;;;;;;5.40;3.80;;;;;;;19.22;36.05;102380.88;4724022;28;21736;-68
2022/03/05 10:38:18;;;;;;;7.22;4.40;;;;;;;19.20;35.79;102371.38;4730908;28;20633;-67
2022/03/05 10:40:53;;;;;;;6.00;4.15;;;;;;;19.31;35.81;102380.03;4724304;28;20512;-68
2022/03/05 10:43:20;;;;;;;6.03;3.83;;;;;;;19.30;35.91;102372.25;4734532;28;20625;-68
2022/03/05 10:45:52;;;;;;;7.07;4.22;;;;;;;19.35;35.70;102372.66;4720865;28;21149;-68
2022/03/05 10:48:29;;;;;;;5.78;3.97;;;;;;;19.27;35.62;102351.41;4729891;28;20538;-68
2022/03/05 10:51:01;;;;;;;6.78;4.00;;;;;;;19.42;35.48;102362.38;4736163;28;20811;-67
2022/03/05 10:53:41;;;;;;;5.68;3.72;;;;;;;19.45;35.61;102377.94;4731994;28;20979;-67
2022/03/05 10:56:24;;;;;;;6.30;4.25;;;;;;;19.42;35.59;102371.13;4724257;28;20919;-68
2022/03/05 10:59:10;;;;;;;6.05;4.25;;;;;;;19.40;35.52;102366.97;4726200;28;21729;-67
2022/03/05 11:01:41;;;;;;;5.63;4.18;;;;;;;19.31;35.81;102369.44;4729440;28;21609;-68
2022/03/05 11:04:09;;;;;;;5.22;3.80;;;;;;;19.35;35.49;102374.44;4723616;28;20583;-67
2022/03/05 11:06:37;;;;;;;7.82;4.43;;;;;;;19.35;35.65;102369.16;4729345;28;21445;-67
2022/03/05 11:09:04;;;;;;;6.40;4.15;;;;;;;19.22;35.85;102354.47;4720266;28;21017;-69
2022/03/05 11:11:31;;;;;;;7.18;4.20;;;;;;;19.31;35.96;102364.16;4730071;28;20576;-68
2022/03/05 11:13:57;;;;;;;6.35;4.25;;;;;;;19.28;35.91;102368.91;4721759;28;21491;-68
2022/03/05 11:16:25;;;;;;;8.18;4.47;;;;;;;19.29;35.97;102366.13;4704928;28;21393;-68
2022/03/05 11:18:52;;;;;;;6.70;3.78;;;;;;;19.24;36.08;102363.06;4720390;28;21640;-67
2022/03/05 11:21:18;;;;;;;6.15;4.13;;;;;;;19.28;36.10;102371.53;4705374;28;20057;-70
2022/03/05 11:23:45;;;;;;;5.95;4.30;;;;;;;19.17;36.07;102348.72;4728104;28;20929;-67